sensor_id;sensor_type;location;lat;lon;timestamp;P1;durP1;ratioP1;P2;durP2;ratioP2
18360;SDS011;9308;48.550;9.108;2023-05-10T00:00:24;3.67;;;2.10;;
18360;SDS011;9308;48.550;9.108;2023-05-10T00:02:50;2.37;;;2.17;;
18360;SDS011;9308;48.550;9.108;2023-05-10T00:05:16;1.63;;;1.53;;
18360;SDS011;9308;48.550;9.108;2023-05-10T00:07:41;1.87;;;1.77;;
18360;SDS011;9308;48.550;9.108;2023-05-10T00:10:09;2.03;;;1.83;;
18360;SDS011;9308;48.550;9.108;2023-05-10T00:12:35;1.57;;;1.50;;
18360;SDS011;9308;48.550;9.108;2023-05-10T00:15:01;1.83;;;1.73;;
18360;SDS011;9308;48.550;9.108;2023-05-10T00:17:26;2.13;;;1.60;;
18360;SDS011;9308;48.550;9.108;2023-05-10T00:19:52;2.10;;;1.60;;
18360;SDS011;9308;48.550;9.108;2023-05-10T00:22:17;2.20;;;2.10;;
18360;SDS011;9308;48.550;9.108;2023-05-10T00:24:43;1.70;;;1.60;;
18360;SDS011;9308;48.550;9.108;2023-05-10T00:27:08;1.67;;;1.57;;
18360;SDS011;9308;48.550;9.108;2023-05-10T00:29:33;1.80;;;1.70;;
18360;SDS011;9308;48.550;9.108;2023-05-10T00:31:59;1.37;;;1.30;;
18360;SDS011;9308;48.550;9.108;2023-05-10T00:34:24;1.10;;;1.10;;
18360;SDS011;9308;48.550;9.108;2023-05-10T00:36:50;1.10;;;1.10;;
18360;SDS011;9308;48.550;9.108;2023-05-10T00:39:16;1.10;;;1.00;;
18360;SDS011;9308;48.550;9.108;2023-05-10T00:41:41;0.80;;;0.80;;
18360;SDS011;9308;48.550;9.108;2023-05-10T00:44:06;1.00;;;1.00;;
18360;SDS011;9308;48.550;9.108;2023-05-10T00:46:32;0.93;;;0.93;;
18360;SDS011;9308;48.550;9.108;2023-05-10T00:48:57;1.07;;;1.07;;
18360;SDS011;9308;48.550;9.108;2023-05-10T00:51:23;1.47;;;0.90;;
18360;SDS011;9308;48.550;9.108;2023-05-10T00:53:49;1.03;;;1.00;;
18360;SDS011;9308;48.550;9.108;2023-05-10T00:56:16;0.83;;;0.83;;
18360;SDS011;9308;48.550;9.108;2023-05-10T00:58:42;0.93;;;0.93;;
18360;SDS011;9308;48.550;9.108;2023-05-10T01:01:07;1.17;;;1.07;;
18360;SDS011;9308;48.550;9.108;2023-05-10T01:03:34;0.90;;;0.90;;
18360;SDS011;9308;48.550;9.108;2023-05-10T01:06:00;1.03;;;1.03;;
18360;SDS011;9308;48.550;9.108;2023-05-10T01:08:25;1.97;;;1.10;;
18360;SDS011;9308;48.550;9.108;2023-05-10T01:10:51;6.57;;;1.10;;
18360;SDS011;9308;48.550;9.108;2023-05-10T01:13:18;0.70;;;0.70;;
18360;SDS011;9308;48.550;9.108;2023-05-10T01:15:55;1.13;;;1.13;;
18360;SDS011;9308;48.550;9.108;2023-05-10T01:18:21;0.83;;;0.80;;
18360;SDS011;9308;48.550;9.108;2023-05-10T01:20:48;0.80;;;0.80;;
18360;SDS011;9308;48.550;9.108;2023-05-10T01:23:31;0.90;;;0.90;;
18360;SDS011;9308;48.550;9.108;2023-05-10T01:34:35;0.80;;;0.80;;
18360;SDS011;9308;48.550;9.108;2023-05-10T01:37:07;0.80;;;0.80;;
18360;SDS011;9308;48.550;9.108;2023-05-10T01:39:43;0.80;;;0.70;;
18360;SDS011;9308;48.550;9.108;2023-05-10T01:42:21;0.70;;;0.70;;
18360;SDS011;9308;48.550;9.108;2023-05-10T01:44:56;0.80;;;0.80;;
18360;SDS011;9308;48.550;9.108;2023-05-10T01:47:31;0.60;;;0.60;;
18360;SDS011;9308;48.550;9.108;2023-05-10T01:49:58;0.93;;;0.90;;
18360;SDS011;9308;48.550;9.108;2023-05-10T01:52:32;0.80;;;0.80;;
18360;SDS011;9308;48.550;9.108;2023-05-10T01:55:02;0.80;;;0.80;;
18360;SDS011;9308;48.550;9.108;2023-05-10T01:57:37;0.67;;;0.67;;
18360;SDS011;9308;48.550;9.108;2023-05-10T02:00:06;1.10;;;0.60;;
18360;SDS011;9308;48.550;9.108;2023-05-10T02:02:35;0.90;;;0.70;;
18360;SDS011;9308;48.550;9.108;2023-05-10T02:05:03;0.83;;;0.70;;
18360;SDS011;9308;48.550;9.108;2023-05-10T02:07:32;1.13;;;0.60;;
18360;SDS011;9308;48.550;9.108;2023-05-10T02:10:00;0.60;;;0.60;;
18360;SDS011;9308;48.550;9.108;2023-05-10T02:12:27;4.83;;;1.00;;
18360;SDS011;9308;48.550;9.108;2023-05-10T02:14:54;4.67;;;0.70;;
18360;SDS011;9308;48.550;9.108;2023-05-10T02:17:21;0.50;;;0.50;;
18360;SDS011;9308;48.550;9.108;2023-05-10T02:19:50;0.70;;;0.70;;
18360;SDS011;9308;48.550;9.108;2023-05-10T02:22:17;0.63;;;0.63;;
18360;SDS011;9308;48.550;9.108;2023-05-10T02:24:44;0.87;;;0.60;;
18360;SDS011;9308;48.550;9.108;2023-05-10T02:27:10;0.67;;;0.67;;
18360;SDS011;9308;48.550;9.108;2023-05-10T02:29:37;0.70;;;0.70;;
18360;SDS011;9308;48.550;9.108;2023-05-10T02:32:03;1.20;;;0.93;;
18360;SDS011;9308;48.550;9.108;2023-05-10T02:34:29;0.77;;;0.77;;
18360;SDS011;9308;48.550;9.108;2023-05-10T02:36:56;0.90;;;0.90;;
18360;SDS011;9308;48.550;9.108;2023-05-10T02:39:22;1.07;;;1.00;;
18360;SDS011;9308;48.550;9.108;2023-05-10T02:41:49;2.13;;;1.03;;
18360;SDS011;9308;48.550;9.108;2023-05-10T02:44:19;1.13;;;0.80;;
18360;SDS011;9308;48.550;9.108;2023-05-10T02:46:46;0.90;;;0.90;;
18360;SDS011;9308;48.550;9.108;2023-05-10T02:49:13;1.10;;;1.10;;
18360;SDS011;9308;48.550;9.108;2023-05-10T02:51:40;0.90;;;0.90;;
18360;SDS011;9308;48.550;9.108;2023-05-10T02:54:13;1.17;;;1.07;;
18360;SDS011;9308;48.550;9.108;2023-05-10T02:56:47;1.03;;;0.93;;
18360;SDS011;9308;48.550;9.108;2023-05-10T02:59:14;1.00;;;1.00;;
18360;SDS011;9308;48.550;9.108;2023-05-10T03:01:39;4.30;;;1.13;;
18360;SDS011;9308;48.550;9.108;2023-05-10T03:04:05;1.60;;;1.03;;
18360;SDS011;9308;48.550;9.108;2023-05-10T03:06:31;1.20;;;1.10;;
18360;SDS011;9308;48.550;9.108;2023-05-10T03:08:57;2.50;;;0.97;;
18360;SDS011;9308;48.550;9.108;2023-05-10T03:16:41;1.40;;;1.27;;
18360;SDS011;9308;48.550;9.108;2023-05-10T03:19:13;1.50;;;1.40;;
18360;SDS011;9308;48.550;9.108;2023-05-10T03:21:44;1.37;;;1.30;;
18360;SDS011;9308;48.550;9.108;2023-05-10T03:24:14;1.27;;;1.20;;
18360;SDS011;9308;48.550;9.108;2023-05-10T03:26:42;1.50;;;1.40;;
18360;SDS011;9308;48.550;9.108;2023-05-10T03:29:08;1.20;;;1.20;;
18360;SDS011;9308;48.550;9.108;2023-05-10T03:31:37;1.40;;;1.30;;
18360;SDS011;9308;48.550;9.108;2023-05-10T03:34:03;1.63;;;1.30;;
18360;SDS011;9308;48.550;9.108;2023-05-10T03:36:29;2.00;;;1.50;;
18360;SDS011;9308;48.550;9.108;2023-05-10T03:38:54;1.53;;;1.40;;
18360;SDS011;9308;48.550;9.108;2023-05-10T03:41:19;1.40;;;1.20;;
18360;SDS011;9308;48.550;9.108;2023-05-10T03:43:45;2.00;;;1.43;;
18360;SDS011;9308;48.550;9.108;2023-05-10T03:46:11;1.40;;;1.20;;
18360;SDS011;9308;48.550;9.108;2023-05-10T03:48:36;1.60;;;1.50;;
18360;SDS011;9308;48.550;9.108;2023-05-10T03:51:02;1.50;;;1.40;;
18360;SDS011;9308;48.550;9.108;2023-05-10T03:53:28;1.50;;;1.40;;
18360;SDS011;9308;48.550;9.108;2023-05-10T03:55:54;1.70;;;1.60;;
18360;SDS011;9308;48.550;9.108;2023-05-10T03:58:19;1.37;;;1.37;;
18360;SDS011;9308;48.550;9.108;2023-05-10T04:00:45;2.70;;;1.40;;
18360;SDS011;9308;48.550;9.108;2023-05-10T04:03:11;1.50;;;1.40;;
18360;SDS011;9308;48.550;9.108;2023-05-10T04:05:37;1.53;;;1.40;;
18360;SDS011;9308;48.550;9.108;2023-05-10T04:08:03;1.70;;;1.50;;
18360;SDS011;9308;48.550;9.108;2023-05-10T04:10:29;1.60;;;1.50;;
18360;SDS011;9308;48.550;9.108;2023-05-10T04:12:54;1.70;;;1.60;;
18360;SDS011;9308;48.550;9.108;2023-05-10T04:15:20;1.80;;;1.70;;
18360;SDS011;9308;48.550;9.108;2023-05-10T04:17:45;2.27;;;1.77;;
18360;SDS011;9308;48.550;9.108;2023-05-10T04:20:12;1.23;;;1.10;;
18360;SDS011;9308;48.550;9.108;2023-05-10T04:22:38;1.50;;;1.40;;
18360;SDS011;9308;48.550;9.108;2023-05-10T04:25:03;1.40;;;1.30;;
18360;SDS011;9308;48.550;9.108;2023-05-10T04:27:29;1.50;;;1.40;;
18360;SDS011;9308;48.550;9.108;2023-05-10T04:29:56;1.60;;;1.50;;
18360;SDS011;9308;48.550;9.108;2023-05-10T04:32:21;1.40;;;1.30;;
18360;SDS011;9308;48.550;9.108;2023-05-10T04:34:47;2.60;;;1.47;;
18360;SDS011;9308;48.550;9.108;2023-05-10T04:37:12;3.00;;;1.70;;
18360;SDS011;9308;48.550;9.108;2023-05-10T04:39:38;1.50;;;1.40;;
18360;SDS011;9308;48.550;9.108;2023-05-10T04:42:03;2.00;;;1.90;;
18360;SDS011;9308;48.550;9.108;2023-05-10T04:44:31;2.03;;;1.93;;
18360;SDS011;9308;48.550;9.108;2023-05-10T04:46:57;2.20;;;2.10;;
18360;SDS011;9308;48.550;9.108;2023-05-10T04:49:22;2.07;;;1.97;;
18360;SDS011;9308;48.550;9.108;2023-05-10T04:51:47;1.83;;;1.73;;
18360;SDS011;9308;48.550;9.108;2023-05-10T04:54:13;3.30;;;1.90;;
18360;SDS011;9308;48.550;9.108;2023-05-10T04:56:38;2.00;;;1.90;;
18360;SDS011;9308;48.550;9.108;2023-05-10T04:59:04;1.93;;;1.83;;
18360;SDS011;9308;48.550;9.108;2023-05-10T05:01:29;1.70;;;1.60;;
18360;SDS011;9308;48.550;9.108;2023-05-10T05:03:55;2.17;;;1.97;;
18360;SDS011;9308;48.550;9.108;2023-05-10T05:06:21;1.73;;;1.63;;
18360;SDS011;9308;48.550;9.108;2023-05-10T05:08:46;2.27;;;2.00;;
18360;SDS011;9308;48.550;9.108;2023-05-10T05:11:12;2.03;;;1.83;;
18360;SDS011;9308;48.550;9.108;2023-05-10T05:13:37;2.00;;;1.80;;
18360;SDS011;9308;48.550;9.108;2023-05-10T05:16:03;1.77;;;1.67;;
18360;SDS011;9308;48.550;9.108;2023-05-10T05:18:28;2.53;;;2.13;;
18360;SDS011;9308;48.550;9.108;2023-05-10T05:20:54;1.73;;;1.50;;
18360;SDS011;9308;48.550;9.108;2023-05-10T05:23:19;2.80;;;2.17;;
18360;SDS011;9308;48.550;9.108;2023-05-10T05:25:46;2.10;;;2.00;;
18360;SDS011;9308;48.550;9.108;2023-05-10T05:28:11;3.23;;;2.23;;
18360;SDS011;9308;48.550;9.108;2023-05-10T05:30:37;2.47;;;2.27;;
18360;SDS011;9308;48.550;9.108;2023-05-10T05:33:03;1.93;;;1.83;;
18360;SDS011;9308;48.550;9.108;2023-05-10T05:35:29;2.00;;;1.90;;
18360;SDS011;9308;48.550;9.108;2023-05-10T05:37:54;2.27;;;2.17;;
18360;SDS011;9308;48.550;9.108;2023-05-10T05:40:20;1.87;;;1.77;;
18360;SDS011;9308;48.550;9.108;2023-05-10T05:42:46;2.50;;;1.90;;
18360;SDS011;9308;48.550;9.108;2023-05-10T05:45:11;2.00;;;1.90;;
18360;SDS011;9308;48.550;9.108;2023-05-10T05:47:40;1.60;;;1.50;;
18360;SDS011;9308;48.550;9.108;2023-05-10T05:50:05;2.20;;;2.03;;
18360;SDS011;9308;48.550;9.108;2023-05-10T05:52:31;2.33;;;2.13;;
18360;SDS011;9308;48.550;9.108;2023-05-10T05:54:56;2.40;;;2.30;;
18360;SDS011;9308;48.550;9.108;2023-05-10T05:57:22;3.17;;;2.70;;
18360;SDS011;9308;48.550;9.108;2023-05-10T05:59:47;2.60;;;2.40;;
18360;SDS011;9308;48.550;9.108;2023-05-10T06:02:13;2.60;;;2.40;;
18360;SDS011;9308;48.550;9.108;2023-05-10T06:04:38;2.43;;;2.30;;
18360;SDS011;9308;48.550;9.108;2023-05-10T06:07:04;2.67;;;2.47;;
18360;SDS011;9308;48.550;9.108;2023-05-10T06:09:29;3.83;;;2.20;;
18360;SDS011;9308;48.550;9.108;2023-05-10T06:11:55;3.80;;;2.73;;
18360;SDS011;9308;48.550;9.108;2023-05-10T06:14:20;3.33;;;2.40;;
18360;SDS011;9308;48.550;9.108;2023-05-10T06:16:46;2.90;;;2.50;;
18360;SDS011;9308;48.550;9.108;2023-05-10T06:19:12;2.87;;;2.67;;
18360;SDS011;9308;48.550;9.108;2023-05-10T06:21:37;4.30;;;3.20;;
18360;SDS011;9308;48.550;9.108;2023-05-10T06:24:03;2.67;;;2.57;;
18360;SDS011;9308;48.550;9.108;2023-05-10T06:26:29;4.40;;;2.73;;
18360;SDS011;9308;48.550;9.108;2023-05-10T06:28:54;2.47;;;2.37;;
18360;SDS011;9308;48.550;9.108;2023-05-10T06:31:19;2.67;;;2.43;;
18360;SDS011;9308;48.550;9.108;2023-05-10T06:33:46;2.40;;;2.20;;
18360;SDS011;9308;48.550;9.108;2023-05-10T06:36:11;4.40;;;2.37;;
18360;SDS011;9308;48.550;9.108;2023-05-10T06:38:37;2.73;;;2.53;;
18360;SDS011;9308;48.550;9.108;2023-05-10T06:41:02;2.70;;;2.50;;
18360;SDS011;9308;48.550;9.108;2023-05-10T06:43:28;2.87;;;2.67;;
18360;SDS011;9308;48.550;9.108;2023-05-10T06:45:53;2.80;;;2.60;;
18360;SDS011;9308;48.550;9.108;2023-05-10T06:48:19;3.27;;;2.87;;
18360;SDS011;9308;48.550;9.108;2023-05-10T06:50:44;2.97;;;2.20;;
18360;SDS011;9308;48.550;9.108;2023-05-10T06:53:10;2.50;;;2.30;;
18360;SDS011;9308;48.550;9.108;2023-05-10T06:55:37;4.30;;;2.70;;
18360;SDS011;9308;48.550;9.108;2023-05-10T06:58:02;2.97;;;2.67;;
18360;SDS011;9308;48.550;9.108;2023-05-10T07:00:28;3.70;;;2.40;;
18360;SDS011;9308;48.550;9.108;2023-05-10T07:02:53;3.50;;;2.20;;
18360;SDS011;9308;48.550;9.108;2023-05-10T07:05:20;2.77;;;2.10;;
18360;SDS011;9308;48.550;9.108;2023-05-10T07:07:45;2.10;;;2.00;;
18360;SDS011;9308;48.550;9.108;2023-05-10T07:10:11;2.30;;;2.20;;
18360;SDS011;9308;48.550;9.108;2023-05-10T07:12:36;2.70;;;2.50;;
18360;SDS011;9308;48.550;9.108;2023-05-10T07:15:02;2.07;;;1.97;;
18360;SDS011;9308;48.550;9.108;2023-05-10T07:17:28;2.30;;;1.90;;
18360;SDS011;9308;48.550;9.108;2023-05-10T07:19:53;3.03;;;2.00;;
18360;SDS011;9308;48.550;9.108;2023-05-10T07:22:18;1.90;;;1.80;;
18360;SDS011;9308;48.550;9.108;2023-05-10T07:24:44;2.20;;;1.80;;
18360;SDS011;9308;48.550;9.108;2023-05-10T07:27:10;1.90;;;1.80;;
18360;SDS011;9308;48.550;9.108;2023-05-10T07:29:36;1.70;;;1.60;;
18360;SDS011;9308;48.550;9.108;2023-05-10T07:32:02;1.80;;;1.70;;
18360;SDS011;9308;48.550;9.108;2023-05-10T07:34:27;2.57;;;1.70;;
18360;SDS011;9308;48.550;9.108;2023-05-10T07:36:56;1.70;;;1.60;;
18360;SDS011;9308;48.550;9.108;2023-05-10T07:39:23;1.83;;;1.73;;
18360;SDS011;9308;48.550;9.108;2023-05-10T07:41:48;1.90;;;1.80;;
18360;SDS011;9308;48.550;9.108;2023-05-10T07:44:14;2.07;;;1.90;;
18360;SDS011;9308;48.550;9.108;2023-05-10T07:46:39;1.97;;;1.87;;
18360;SDS011;9308;48.550;9.108;2023-05-10T07:49:05;1.90;;;1.80;;
18360;SDS011;9308;48.550;9.108;2023-05-10T07:51:31;1.70;;;1.60;;
18360;SDS011;9308;48.550;9.108;2023-05-10T07:53:56;1.80;;;1.70;;
18360;SDS011;9308;48.550;9.108;2023-05-10T07:59:00;1.40;;;1.30;;
18360;SDS011;9308;48.550;9.108;2023-05-10T08:01:32;1.70;;;1.60;;
18360;SDS011;9308;48.550;9.108;2023-05-10T08:03:58;1.87;;;1.70;;
18360;SDS011;9308;48.550;9.108;2023-05-10T08:06:25;2.00;;;1.90;;
18360;SDS011;9308;48.550;9.108;2023-05-10T08:08:53;1.90;;;1.47;;
18360;SDS011;9308;48.550;9.108;2023-05-10T08:11:19;1.77;;;1.67;;
18360;SDS011;9308;48.550;9.108;2023-05-10T08:13:46;1.80;;;1.70;;
18360;SDS011;9308;48.550;9.108;2023-05-10T08:16:12;2.07;;;1.60;;
18360;SDS011;9308;48.550;9.108;2023-05-10T08:18:37;1.80;;;1.70;;
18360;SDS011;9308;48.550;9.108;2023-05-10T08:21:04;1.63;;;1.37;;
18360;SDS011;9308;48.550;9.108;2023-05-10T08:23:30;1.50;;;1.40;;
18360;SDS011;9308;48.550;9.108;2023-05-10T08:25:55;1.90;;;1.40;;
18360;SDS011;9308;48.550;9.108;2023-05-10T08:28:21;1.50;;;1.40;;
18360;SDS011;9308;48.550;9.108;2023-05-10T08:30:46;1.30;;;1.20;;
18360;SDS011;9308;48.550;9.108;2023-05-10T08:33:11;1.30;;;1.20;;
18360;SDS011;9308;48.550;9.108;2023-05-10T08:35:37;1.00;;;1.00;;
18360;SDS011;9308;48.550;9.108;2023-05-10T08:38:02;1.40;;;1.30;;
18360;SDS011;9308;48.550;9.108;2023-05-10T08:40:28;1.37;;;1.27;;
18360;SDS011;9308;48.550;9.108;2023-05-10T08:42:55;1.50;;;1.40;;
18360;SDS011;9308;48.550;9.108;2023-05-10T08:45:31;2.20;;;1.53;;
18360;SDS011;9308;48.550;9.108;2023-05-10T08:48:01;1.27;;;1.20;;
18360;SDS011;9308;48.550;9.108;2023-05-10T08:50:28;1.73;;;1.40;;
18360;SDS011;9308;48.550;9.108;2023-05-10T08:52:55;1.40;;;1.20;;
18360;SDS011;9308;48.550;9.108;2023-05-10T08:55:24;1.00;;;1.00;;
18360;SDS011;9308;48.550;9.108;2023-05-10T08:57:49;1.50;;;1.40;;
18360;SDS011;9308;48.550;9.108;2023-05-10T09:00:15;2.47;;;1.37;;
18360;SDS011;9308;48.550;9.108;2023-05-10T09:02:43;2.77;;;1.30;;
18360;SDS011;9308;48.550;9.108;2023-05-10T09:05:10;1.20;;;1.20;;
18360;SDS011;9308;48.550;9.108;2023-05-10T09:07:37;1.83;;;1.00;;
18360;SDS011;9308;48.550;9.108;2023-05-10T09:10:02;2.10;;;1.00;;
18360;SDS011;9308;48.550;9.108;2023-05-10T09:12:30;1.13;;;1.03;;
18360;SDS011;9308;48.550;9.108;2023-05-10T09:14:55;0.90;;;0.90;;
18360;SDS011;9308;48.550;9.108;2023-05-10T09:17:23;1.13;;;1.10;;
18360;SDS011;9308;48.550;9.108;2023-05-10T09:19:49;0.93;;;0.93;;
18360;SDS011;9308;48.550;9.108;2023-05-10T09:22:14;0.80;;;0.80;;
18360;SDS011;9308;48.550;9.108;2023-05-10T09:24:41;1.00;;;1.00;;
18360;SDS011;9308;48.550;9.108;2023-05-10T09:27:10;1.27;;;0.80;;
18360;SDS011;9308;48.550;9.108;2023-05-10T09:29:39;0.70;;;0.70;;
18360;SDS011;9308;48.550;9.108;2023-05-10T09:32:05;0.80;;;0.80;;
18360;SDS011;9308;48.550;9.108;2023-05-10T09:34:31;0.80;;;0.80;;
18360;SDS011;9308;48.550;9.108;2023-05-10T09:37:02;3.43;;;1.17;;
18360;SDS011;9308;48.550;9.108;2023-05-10T09:39:36;1.37;;;0.80;;
18360;SDS011;9308;48.550;9.108;2023-05-10T09:42:03;0.70;;;0.70;;
18360;SDS011;9308;48.550;9.108;2023-05-10T09:44:30;0.67;;;0.67;;
18360;SDS011;9308;48.550;9.108;2023-05-10T09:46:58;0.90;;;0.90;;
18360;SDS011;9308;48.550;9.108;2023-05-10T09:49:24;0.93;;;0.80;;
18360;SDS011;9308;48.550;9.108;2023-05-10T09:52:02;0.83;;;0.83;;
18360;SDS011;9308;48.550;9.108;2023-05-10T09:54:31;1.20;;;0.80;;
18360;SDS011;9308;48.550;9.108;2023-05-10T09:56:57;0.77;;;0.77;;
18360;SDS011;9308;48.550;9.108;2023-05-10T09:59:25;0.80;;;0.80;;
18360;SDS011;9308;48.550;9.108;2023-05-10T10:01:52;1.50;;;1.03;;
18360;SDS011;9308;48.550;9.108;2023-05-10T10:04:20;0.90;;;0.90;;
18360;SDS011;9308;48.550;9.108;2023-05-10T10:06:46;1.27;;;1.17;;
18360;SDS011;9308;48.550;9.108;2023-05-10T10:09:12;0.83;;;0.83;;
18360;SDS011;9308;48.550;9.108;2023-05-10T10:11:38;0.80;;;0.80;;
18360;SDS011;9308;48.550;9.108;2023-05-10T10:14:05;0.97;;;0.97;;
18360;SDS011;9308;48.550;9.108;2023-05-10T10:16:31;0.80;;;0.80;;
18360;SDS011;9308;48.550;9.108;2023-05-10T10:18:57;3.87;;;1.10;;
18360;SDS011;9308;48.550;9.108;2023-05-10T10:21:23;1.00;;;0.90;;
18360;SDS011;9308;48.550;9.108;2023-05-10T10:23:49;3.30;;;1.00;;
18360;SDS011;9308;48.550;9.108;2023-05-10T10:26:15;0.87;;;0.87;;
18360;SDS011;9308;48.550;9.108;2023-05-10T10:32:21;1.10;;;1.10;;
18360;SDS011;9308;48.550;9.108;2023-05-10T10:34:28;1.10;;;1.10;;
18360;SDS011;9308;48.550;9.108;2023-05-10T10:36:55;1.40;;;1.30;;
18360;SDS011;9308;48.550;9.108;2023-05-10T10:39:22;1.97;;;1.20;;
18360;SDS011;9308;48.550;9.108;2023-05-10T10:41:53;1.00;;;0.90;;
18360;SDS011;9308;48.550;9.108;2023-05-10T10:44:24;1.10;;;1.10;;
18360;SDS011;9308;48.550;9.108;2023-05-10T10:46:58;2.40;;;1.10;;
18360;SDS011;9308;48.550;9.108;2023-05-10T10:49:28;1.40;;;1.10;;
18360;SDS011;9308;48.550;9.108;2023-05-10T10:57:18;2.83;;;2.10;;
18360;SDS011;9308;48.550;9.108;2023-05-10T10:59:44;1.50;;;1.40;;
18360;SDS011;9308;48.550;9.108;2023-05-10T11:02:20;1.90;;;1.77;;
18360;SDS011;9308;48.550;9.108;2023-05-10T11:05:57;1.27;;;1.00;;
18360;SDS011;9308;48.550;9.108;2023-05-10T11:08:16;0.97;;;0.90;;
18360;SDS011;9308;48.550;9.108;2023-05-10T11:10:52;1.23;;;1.10;;
18360;SDS011;9308;48.550;9.108;2023-05-10T11:18:37;1.20;;;1.10;;
18360;SDS011;9308;48.550;9.108;2023-05-10T11:21:03;3.17;;;1.10;;
18360;SDS011;9308;48.550;9.108;2023-05-10T11:23:51;1.13;;;1.00;;
18360;SDS011;9308;48.550;9.108;2023-05-10T11:26:17;1.50;;;1.50;;
18360;SDS011;9308;48.550;9.108;2023-05-10T11:28:46;1.50;;;1.40;;
18360;SDS011;9308;48.550;9.108;2023-05-10T11:31:16;3.17;;;1.20;;
18360;SDS011;9308;48.550;9.108;2023-05-10T11:33:47;1.40;;;1.30;;
18360;SDS011;9308;48.550;9.108;2023-05-10T11:36:16;2.30;;;0.97;;
18360;SDS011;9308;48.550;9.108;2023-05-10T11:38:43;1.27;;;1.17;;
18360;SDS011;9308;48.550;9.108;2023-05-10T11:41:09;1.50;;;1.13;;
18360;SDS011;9308;48.550;9.108;2023-05-10T11:43:36;0.90;;;0.90;;
18360;SDS011;9308;48.550;9.108;2023-05-10T11:46:06;1.33;;;1.23;;
18360;SDS011;9308;48.550;9.108;2023-05-10T11:48:33;1.43;;;1.20;;
18360;SDS011;9308;48.550;9.108;2023-05-10T11:50:58;1.47;;;1.10;;
18360;SDS011;9308;48.550;9.108;2023-05-10T11:53:26;1.10;;;1.10;;
18360;SDS011;9308;48.550;9.108;2023-05-10T11:55:52;1.10;;;1.10;;
18360;SDS011;9308;48.550;9.108;2023-05-10T11:58:18;1.90;;;1.50;;
18360;SDS011;9308;48.550;9.108;2023-05-10T12:00:44;1.83;;;1.37;;
18360;SDS011;9308;48.550;9.108;2023-05-10T12:03:10;2.10;;;1.33;;
18360;SDS011;9308;48.550;9.108;2023-05-10T12:05:36;2.27;;;1.43;;
18360;SDS011;9308;48.550;9.108;2023-05-10T12:08:12;1.80;;;1.47;;
18360;SDS011;9308;48.550;9.108;2023-05-10T12:10:38;1.90;;;1.20;;
18360;SDS011;9308;48.550;9.108;2023-05-10T12:13:04;1.33;;;1.10;;
18360;SDS011;9308;48.550;9.108;2023-05-10T12:15:29;1.83;;;1.40;;
18360;SDS011;9308;48.550;9.108;2023-05-10T12:17:54;1.63;;;1.40;;
18360;SDS011;9308;48.550;9.108;2023-05-10T12:20:22;1.00;;;1.00;;
18360;SDS011;9308;48.550;9.108;2023-05-10T12:22:53;1.10;;;1.10;;
18360;SDS011;9308;48.550;9.108;2023-05-10T12:25:20;1.10;;;1.10;;
18360;SDS011;9308;48.550;9.108;2023-05-10T12:27:55;2.87;;;1.57;;
18360;SDS011;9308;48.550;9.108;2023-05-10T12:30:23;2.23;;;1.40;;
18360;SDS011;9308;48.550;9.108;2023-05-10T12:32:50;1.50;;;1.30;;
18360;SDS011;9308;48.550;9.108;2023-05-10T12:35:15;1.30;;;1.20;;
18360;SDS011;9308;48.550;9.108;2023-05-10T12:37:44;1.20;;;1.10;;
18360;SDS011;9308;48.550;9.108;2023-05-10T12:40:11;1.50;;;1.40;;
18360;SDS011;9308;48.550;9.108;2023-05-10T12:42:37;1.50;;;1.23;;
18360;SDS011;9308;48.550;9.108;2023-05-10T12:45:04;2.27;;;1.30;;
18360;SDS011;9308;48.550;9.108;2023-05-10T12:47:30;3.27;;;1.17;;
18360;SDS011;9308;48.550;9.108;2023-05-10T12:49:56;2.30;;;1.20;;
18360;SDS011;9308;48.550;9.108;2023-05-10T12:52:22;2.63;;;1.40;;
18360;SDS011;9308;48.550;9.108;2023-05-10T12:54:48;2.33;;;1.20;;
18360;SDS011;9308;48.550;9.108;2023-05-10T12:57:14;1.20;;;1.10;;
18360;SDS011;9308;48.550;9.108;2023-05-10T12:59:39;1.27;;;1.20;;
18360;SDS011;9308;48.550;9.108;2023-05-10T13:02:05;2.87;;;1.10;;
18360;SDS011;9308;48.550;9.108;2023-05-10T13:04:31;1.50;;;1.00;;
18360;SDS011;9308;48.550;9.108;2023-05-10T13:06:56;2.20;;;1.40;;
18360;SDS011;9308;48.550;9.108;2023-05-10T13:09:26;1.83;;;1.40;;
18360;SDS011;9308;48.550;9.108;2023-05-10T13:11:54;1.40;;;1.30;;
18360;SDS011;9308;48.550;9.108;2023-05-10T13:14:20;1.30;;;1.20;;
18360;SDS011;9308;48.550;9.108;2023-05-10T13:16:46;2.60;;;1.30;;
18360;SDS011;9308;48.550;9.108;2023-05-10T13:19:12;1.50;;;1.30;;
18360;SDS011;9308;48.550;9.108;2023-05-10T13:21:38;1.53;;;1.13;;
18360;SDS011;9308;48.550;9.108;2023-05-10T13:24:06;1.00;;;1.00;;
18360;SDS011;9308;48.550;9.108;2023-05-10T13:26:32;1.50;;;1.40;;
18360;SDS011;9308;48.550;9.108;2023-05-10T13:28:57;3.80;;;1.60;;
18360;SDS011;9308;48.550;9.108;2023-05-10T13:31:23;1.30;;;1.20;;
18360;SDS011;9308;48.550;9.108;2023-05-10T13:33:48;1.20;;;1.10;;
18360;SDS011;9308;48.550;9.108;2023-05-10T13:36:14;1.40;;;1.30;;
18360;SDS011;9308;48.550;9.108;2023-05-10T13:38:39;1.40;;;1.20;;
18360;SDS011;9308;48.550;9.108;2023-05-10T13:41:05;4.93;;;1.50;;
18360;SDS011;9308;48.550;9.108;2023-05-10T13:43:30;3.80;;;1.40;;
18360;SDS011;9308;48.550;9.108;2023-05-10T13:45:55;1.40;;;1.20;;
18360;SDS011;9308;48.550;9.108;2023-05-10T13:48:21;2.00;;;1.60;;
18360;SDS011;9308;48.550;9.108;2023-05-10T13:50:46;3.10;;;1.40;;
18360;SDS011;9308;48.550;9.108;2023-05-10T13:53:12;2.90;;;1.60;;
18360;SDS011;9308;48.550;9.108;2023-05-10T13:55:37;1.50;;;1.40;;
18360;SDS011;9308;48.550;9.108;2023-05-10T13:58:03;1.90;;;1.60;;
18360;SDS011;9308;48.550;9.108;2023-05-10T14:00:29;2.20;;;1.77;;
18360;SDS011;9308;48.550;9.108;2023-05-10T14:02:54;2.60;;;1.80;;
18360;SDS011;9308;48.550;9.108;2023-05-10T14:05:20;2.23;;;1.43;;
18360;SDS011;9308;48.550;9.108;2023-05-10T14:07:45;1.40;;;1.30;;
18360;SDS011;9308;48.550;9.108;2023-05-10T14:10:11;1.70;;;1.60;;
18360;SDS011;9308;48.550;9.108;2023-05-10T14:12:36;2.53;;;1.40;;
18360;SDS011;9308;48.550;9.108;2023-05-10T14:15:02;2.70;;;1.33;;
18360;SDS011;9308;48.550;9.108;2023-05-10T14:17:30;2.30;;;1.40;;
18360;SDS011;9308;48.550;9.108;2023-05-10T14:19:56;2.63;;;1.60;;
18360;SDS011;9308;48.550;9.108;2023-05-10T14:22:22;1.60;;;1.20;;
18360;SDS011;9308;48.550;9.108;2023-05-10T14:24:47;3.90;;;1.50;;
18360;SDS011;9308;48.550;9.108;2023-05-10T14:27:13;4.13;;;1.93;;
18360;SDS011;9308;48.550;9.108;2023-05-10T14:29:39;1.43;;;1.33;;
18360;SDS011;9308;48.550;9.108;2023-05-10T14:32:04;3.47;;;1.40;;
18360;SDS011;9308;48.550;9.108;2023-05-10T14:34:30;1.40;;;1.30;;
18360;SDS011;9308;48.550;9.108;2023-05-10T14:36:55;1.10;;;1.10;;
18360;SDS011;9308;48.550;9.108;2023-05-10T14:39:21;1.60;;;1.50;;
18360;SDS011;9308;48.550;9.108;2023-05-10T14:41:47;1.63;;;1.40;;
18360;SDS011;9308;48.550;9.108;2023-05-10T14:44:13;2.30;;;1.30;;
18360;SDS011;9308;48.550;9.108;2023-05-10T14:46:40;1.63;;;1.20;;
18360;SDS011;9308;48.550;9.108;2023-05-10T14:49:06;3.93;;;1.43;;
18360;SDS011;9308;48.550;9.108;2023-05-10T14:51:32;3.73;;;1.70;;
18360;SDS011;9308;48.550;9.108;2023-05-10T14:53:57;1.30;;;1.20;;
18360;SDS011;9308;48.550;9.108;2023-05-10T14:56:23;3.40;;;1.27;;
18360;SDS011;9308;48.550;9.108;2023-05-10T14:58:49;1.33;;;1.20;;
18360;SDS011;9308;48.550;9.108;2023-05-10T15:01:14;1.57;;;1.33;;
18360;SDS011;9308;48.550;9.108;2023-05-10T15:03:40;3.17;;;1.30;;
18360;SDS011;9308;48.550;9.108;2023-05-10T15:06:07;3.23;;;1.80;;
18360;SDS011;9308;48.550;9.108;2023-05-10T15:08:33;2.47;;;1.47;;
18360;SDS011;9308;48.550;9.108;2023-05-10T15:10:59;2.23;;;1.40;;
18360;SDS011;9308;48.550;9.108;2023-05-10T15:13:24;2.30;;;1.63;;
18360;SDS011;9308;48.550;9.108;2023-05-10T15:15:50;1.43;;;1.33;;
18360;SDS011;9308;48.550;9.108;2023-05-10T15:18:15;1.57;;;1.17;;
18360;SDS011;9308;48.550;9.108;2023-05-10T15:20:41;2.60;;;1.40;;
18360;SDS011;9308;48.550;9.108;2023-05-10T15:23:06;4.30;;;1.47;;
18360;SDS011;9308;48.550;9.108;2023-05-10T15:25:32;3.23;;;1.30;;
18360;SDS011;9308;48.550;9.108;2023-05-10T15:28:00;2.50;;;1.40;;